1899 NOT_NAMED (1899215N18130)


IBTrACS version v04r00. Visit IBTrACS website for data access.
Please direct all questions to the IBTrACS Q and A forum

Storm track - Intensity - Wind Radii - Intensity Data - Source Data - All data

Summary Information

Storm ID 1899215N18130
Start Aug 2 16Z
Landfall Aug 5 06Z, Aug 6 00Z
End Aug 7 04Z
ATCF IDs
Track status Best track data.

Storm track plot

Map of storm track

Intensity plots

No Intensity information for this storm


Radial wind information

No radial wind information for this storm


Position and Intensity Table

BASIN ISO_TIME_________ NATURE LAT LON
degrees north degrees east
WP 1899-08-02 16:00:00 NR 18.00 130.00
WP 18:00:00 NR 18.06 129.92
WP 21:00:00 NR 18.15 129.77
WP 1899-08-03 00:00:00 NR 18.28 129.58
WP 03:00:00 NR 18.44 129.31
WP 04:00:00 NR 18.50 129.20
WP 06:00:00 NR 18.65 128.94
WP 09:00:00 NR 18.90 128.48
WP 12:00:00 NR 19.19 127.98
WP 15:00:00 NR 19.50 127.47
WP 16:00:00 NR 19.60 127.30
WP 18:00:00 NR 19.79 127.02
WP 21:00:00 NR 20.08 126.60
WP 1899-08-04 00:00:00 NR 20.38 126.19
WP 03:00:00 NR 20.69 125.75
WP 04:00:00 NR 20.80 125.60
WP 06:00:00 NR 21.03 125.27
WP 09:00:00 NR 21.39 124.74
WP 12:00:00 NR 21.75 124.21
WP 15:00:00 NR 22.09 123.67
WP 16:00:00 NR 22.20 123.50
WP 18:00:00 NR 22.41 123.18
WP 21:00:00 NR 22.70 122.71
WP 1899-08-05 00:00:00 NR 22.97 122.25
WP 03:00:00 NR 23.22 121.77
WP 04:00:00 NR 23.30 121.60
WP 06:00:00 NR 23.46 121.27
WP 09:00:00 NR 23.68 120.75
WP 12:00:00 NR 23.87 120.20
WP 15:00:00 NR 24.05 119.61
WP 16:00:00 NR 24.10 119.40
WP 18:00:00 NR 24.20 118.95
WP 21:00:00 NR 24.32 118.23
WP 1899-08-06 00:00:00 NR 24.43 117.51
WP 03:00:00 NR 24.56 116.82
WP 04:00:00 NR 24.60 116.60
WP 06:00:00 NR 24.72 116.22
WP 09:00:00 NR 24.91 115.70
WP 12:00:00 NR 25.09 115.19
WP 15:00:00 NR 25.26 114.68
WP 16:00:00 NR 25.30 114.50
WP 18:00:00 NR 25.37 114.12
WP 21:00:00 NR 25.44 113.52
WP 1899-08-07 00:00:00 NR 25.48 112.88
WP 03:00:00 NR 25.50 112.22
WP 04:00:00 NR 25.50 112.00

Source Information

Agency Information
USA
TOKYO
CMA
HKO
NEWDELHI
REUNION
BOM
NADI
WELLINGTON
DS824
TD9636 cons_worldwide_trop_cyclone_18710101-19891231-003:Line=1992
TD9635
NEUMANN
MLC

All available IBTrACS Data

SEASON BASIN SUBBASIN ISO_TIME_________ NATURE LAT LON DIST2LAND LANDFALL IFLAG USA SSHS TD9636 LAT TD9636 LON TD9636 STAGE STORM SPEED STORM DIR
Year degrees north degrees east km km 1 degrees north degrees east kts degrees
1899 WP MM 1899-08-02 16:00:00 NR 18.00 130.00 754 745 __________O___ -1 18.00 130.00 7 3 307
1899 WP MM 18:00:00 NR 18.06 129.92 752 744 __________P___ -1 18.06 129.92 7 3 306
1899 WP MM 21:00:00 NR 18.15 129.77 751 735 __________P___ -1 18.15 129.77 7 4 304
1899 WP MM 1899-08-03 00:00:00 NR 18.28 129.58 742 726 __________P___ -1 18.28 129.58 7 5 303
1899 WP MM 03:00:00 NR 18.44 129.31 726 726 __________P___ -1 18.44 129.31 7 6 302
1899 WP MM 04:00:00 NR 18.50 129.20 726 696 __________O___ -1 18.50 129.20 7 8 301
1899 WP MM 06:00:00 NR 18.65 128.94 696 655 __________P___ -1 18.65 128.94 7 10 301
1899 WP MM 09:00:00 NR 18.90 128.48 655 606 __________P___ -1 18.90 128.48 7 11 301
1899 WP MM 12:00:00 NR 19.19 127.98 606 558 __________P___ -1 19.19 127.98 7 11 302
1899 WP MM 15:00:00 NR 19.50 127.47 560 542 __________P___ -1 19.50 127.47 7 11 302
1899 WP MM 16:00:00 NR 19.60 127.30 542 518 __________O___ -1 19.60 127.30 7 10 304
1899 WP MM 18:00:00 NR 19.79 127.02 518 485 __________P___ -1 19.79 127.02 7 10 306
1899 WP MM 21:00:00 NR 20.08 126.60 489 461 __________P___ -1 20.08 126.60 7 10 307
1899 WP MM 1899-08-04 00:00:00 NR 20.38 126.19 466 441 __________P___ -1 20.38 126.19 7 10 308
1899 WP MM 03:00:00 NR 20.69 125.75 447 437 __________P___ -1 20.69 125.75 7 10 308
1899 WP MM 04:00:00 NR 20.80 125.60 437 427 __________O___ -1 20.80 125.60 3 11 307
1899 WP MM 06:00:00 NR 21.03 125.27 427 389 __________P___ -1 21.03 125.27 3 12 306
1899 WP MM 09:00:00 NR 21.39 124.74 389 327 __________P___ -1 21.39 124.74 3 12 306
1899 WP MM 12:00:00 NR 21.75 124.21 327 261 __________P___ -1 21.75 124.21 3 12 305
1899 WP MM 15:00:00 NR 22.09 123.67 261 237 __________P___ -1 22.09 123.67 3 12 305
1899 WP MM 16:00:00 NR 22.20 123.50 237 200 __________O___ -1 22.20 123.50 4 11 305
1899 WP MM 18:00:00 NR 22.41 123.18 200 140 __________P___ -1 22.41 123.18 4 11 304
1899 WP MM 21:00:00 NR 22.70 122.71 140 82 __________P___ -1 22.70 122.71 4 10 303
1899 WP MM 1899-08-05 00:00:00 NR 22.97 122.25 82 40 __________P___ -1 22.97 122.25 4 10 301
1899 WP MM 03:00:00 NR 23.22 121.77 40 20 __________P___ -1 23.22 121.77 4 10 299
1899 WP MM 04:00:00 NR 23.30 121.60 20 0 __________O___ -1 23.30 121.60 4 10 297
1899 WP MM 06:00:00 NR 23.46 121.27 0 0 __________P___ -1 23.46 121.27 4 10 296
1899 WP MM 09:00:00 NR 23.68 120.75 0 0 __________P___ -1 23.68 120.75 4 11 293
1899 WP MM 12:00:00 NR 23.87 120.20 10 10 __________P___ -1 23.87 120.20 4 11 290
1899 WP MM 15:00:00 NR 24.05 119.61 67 71 __________P___ -1 24.05 119.61 4 11 287
1899 WP MM 16:00:00 NR 24.10 119.40 90 45 __________O___ -1 24.10 119.40 4 12 284
1899 WP MM 18:00:00 NR 24.20 118.95 45 10 __________P___ -1 24.20 118.95 4 13 282
1899 WP MM 21:00:00 NR 24.32 118.23 10 0 __________P___ -1 24.32 118.23 4 13 280
1899 WP MM 1899-08-06 00:00:00 NR 24.43 117.51 0 0 __________P___ -1 24.43 117.51 4 13 280
1899 WP MM 03:00:00 NR 24.56 116.82 0 0 __________P___ -1 24.56 116.82 4 13 281
1899 WP MM 04:00:00 NR 24.60 116.60 0 0 __________O___ -1 24.60 116.60 7 11 287
1899 WP MM 06:00:00 NR 24.72 116.22 0 0 __________P___ -1 24.72 116.22 7 11 290
1899 WP MM 09:00:00 NR 24.91 115.70 0 0 __________P___ -1 24.91 115.70 7 10 292
1899 WP MM 12:00:00 NR 25.09 115.19 0 0 __________P___ -1 25.09 115.19 7 10 291
1899 WP MM 15:00:00 NR 25.26 114.68 0 0 __________P___ -1 25.26 114.68 7 10 288
1899 WP MM 16:00:00 NR 25.30 114.50 0 0 __________O___ -1 25.30 114.50 7 10 283
1899 WP MM 18:00:00 NR 25.37 114.12 0 0 __________P___ -1 25.37 114.12 7 11 279
1899 WP MM 21:00:00 NR 25.44 113.52 0 0 __________P___ -1 25.44 113.52 7 11 275
1899 WP MM 1899-08-07 00:00:00 NR 25.48 112.88 0 0 __________P___ -1 25.48 112.88 7 12 273
1899 WP MM 03:00:00 NR 25.50 112.22 0 0 __________P___ -1 25.50 112.22 7 12 271
1899 WP MM 04:00:00 NR 25.50 112.00 0 __________O___ -1 25.50 112.00 7 12 271